»·PEaware :: JUS326 KABQ-KELP

JUS326 :: KABQ-KELP

FLIGHT INFORMATION

Flight Status: Arrived
Operator:
USA Jet
More flights by this operator :: More flights under this callsign
Pilot: Erik S. (3779)
Aircraft: BOEING 737-300
(B733)
More flights by this aircraft type
Origin: KABQ Albuquerque Intl Sunport
United States
Destination: KELP El Paso Intl
United States
More flights between these airports :: More routes between these airports
Route: +MNZNO3 ONM TCS J13 RUTER J86 ELP
File this flight plan on PilotEdge
Remarks:
Altitude:
(Current/Filed)
27,000ft
Speed:
(Current/Filed)
370kts
Departed: 15-Nov-17 09:55 AM
Arrived: 15-Nov-17 10:35 AM
Distance/Time
Traveled:
194nm/0:39
Distance/Time
To Go:
Arrived

Flight Plot

Page will automatically refresh every two minutes.

Flight plan parsing failed; only flown route is shown


Map Options




Map Legend


Flown Route
Filed Route
Departure Airport
Arrival Airport
Navaid (VOR, NDB)
Fix

Horizontal Profiles

Position Reports

Time Latitude Longitude Heading Altitude Ground
Speed
15-Nov-17 09:49 35.046917 -106.620737 90 5361ft 0kts
15-Nov-17 09:50 35.046917 -106.620737 90 5361ft 0kts
15-Nov-17 09:51 35.046917 -106.620737 90 5361ft 0kts
15-Nov-17 09:52 35.046917 -106.620737 90 5361ft 0kts
15-Nov-17 09:53 35.046917 -106.620737 90 5361ft 0kts
15-Nov-17 09:54 35.046917 -106.620737 90 5361ft 0kts
15-Nov-17 09:55 35.046917 -106.620737 90 5361ft 0kts
15-Nov-17 09:56 35.046917 -106.620737 90 5361ft 0kts
15-Nov-17 09:57 35.046917 -106.620737 90 5361ft 0kts
15-Nov-17 09:58 35.046850 -106.620117 107 5361ft 8kts
15-Nov-17 09:59 35.045474 -106.621251 228 5361ft 5kts
15-Nov-17 10:00 35.044331 -106.618235 90 5361ft 52kts
15-Nov-17 10:01 35.044199 -106.570908 88 5699ft 190kts
15-Nov-17 10:02 35.017712 -106.519776 163 7328ft 215kts
15-Nov-17 10:03 34.953334 -106.499353 184 8947ft 255kts
15-Nov-17 10:04 34.876743 -106.515607 191 10557ft 309kts
15-Nov-17 10:05 34.785576 -106.531809 214 12772ft 345kts
15-Nov-17 10:06 34.704387 -106.596624 216 15581ft 357kts
15-Nov-17 10:07 34.619574 -106.662301 216 18104ft 368kts
15-Nov-17 10:08 34.532251 -106.728944 218 20390ft 378kts
15-Nov-17 10:09 34.436214 -106.786524 204 22394ft 401kts
15-Nov-17 10:10 34.328419 -106.826128 205 24230ft 410kts
15-Nov-17 10:11 34.220173 -106.871040 208 25990ft 415kts
15-Nov-17 10:12 34.111240 -106.918843 209 27317ft 423kts
15-Nov-17 10:13 33.998625 -106.968176 208 27328ft 433kts
15-Nov-17 10:14 33.886421 -107.017192 208 27329ft 428kts
15-Nov-17 10:15 33.774779 -107.065844 208 27330ft 426kts
15-Nov-17 10:16 33.663649 -107.114376 208 27311ft 427kts
15-Nov-17 10:17 33.552115 -107.163048 208 27283ft 427kts
15-Nov-17 10:18 33.440819 -107.211271 207 27283ft 428kts
15-Nov-17 10:19 33.329109 -107.259190 208 27283ft 427kts
15-Nov-17 10:20 33.210276 -107.258817 161 27296ft 481kts
15-Nov-17 10:21 33.086790 -107.203981 169 27282ft 472kts
15-Nov-17 10:22 32.961710 -107.155898 168 27283ft 475kts
15-Nov-17 10:23 32.836009 -107.107704 168 27283ft 475kts
15-Nov-17 10:24 32.712068 -107.060296 167 25266ft 465kts
15-Nov-17 10:25 32.591065 -107.014171 166 22433ft 449kts
15-Nov-17 10:26 32.475714 -106.970330 166 20034ft 426kts
15-Nov-17 10:27 32.365757 -106.928635 165 17748ft 406kts
15-Nov-17 10:28 32.265659 -106.877404 133 15519ft 394kts
15-Nov-17 10:29 32.197119 -106.783567 132 13315ft 365kts
15-Nov-17 10:30 32.131913 -106.696994 132 12020ft 333kts
15-Nov-17 10:31 32.076061 -106.623148 132 12018ft 273kts
15-Nov-17 10:32 32.027279 -106.558736 132 11999ft 264kts
15-Nov-17 10:33 31.981286 -106.497861 133 12062ft 210kts
15-Nov-17 10:34 31.943970 -106.446411 122 11772ft 207kts
15-Nov-17 10:35 31.952008 -106.383177 69 9428ft 202kts
15-Nov-17 10:36 31.928589 -106.329809 134 7491ft 183kts
15-Nov-17 10:37 31.887590 -106.302543 180 5833ft 163kts
15-Nov-17 10:38 31.853125 -106.327869 230 4952ft 152kts
15-Nov-17 10:39 31.825201 -106.366681 234 4064ft 154kts
15-Nov-17 10:40 31.808226 -106.390343 169 3965ft 16kts
15-Nov-17 10:41 31.807631 -106.387463 39 3965ft 10kts
15-Nov-17 10:42 31.810629 -106.383489 50 3965ft 22kts
15-Nov-17 10:43 31.814081 -106.378661 49 3965ft 18kts
15-Nov-17 10:44 31.816568 -106.372770 140 3965ft 18kts
15-Nov-17 10:45 31.815338 -106.371588 140 3965ft 0kts
15-Nov-17 10:46 31.815338 -106.371588 140 3965ft 0kts
15-Nov-17 10:47 31.815338 -106.371588 140 3965ft 0kts
15-Nov-17 10:48 31.815338 -106.371588 140 3965ft 0kts
15-Nov-17 10:49 31.815338 -106.371588 140 3965ft 0kts
15-Nov-17 10:50 31.815338 -106.371588 140 3965ft 0kts
15-Nov-17 10:51 31.815338 -106.371588 140 3965ft 0kts
15-Nov-17 10:52 31.815338 -106.371588 140 3965ft 0kts
15-Nov-17 10:53 31.815338 -106.371588 140 3965ft 0kts
15-Nov-17 10:54 31.815338 -106.371588 140 3965ft 0kts

Navigation Log

Ident Type
Flight plan parsing failed, navigation log unavailable